Time;durP1;ratioP1;P1;durP2;ratioP2;P2;SDS_P1;SDS_P2;PMS_P1;PMS_P2;Temp;Humidity;BMP_temperature;BMP_pressure;BME280_temperature;BME280_humidity;BME280_pressure;Samples;Min_cycle;Max_cycle;Signal;HPM_P1;HPM_P2
2022/04/04 00:01:48;;;;;;;3.20;2.53;;;4.70;99.90;;;;;;5099486;28;20239;-66
2022/04/04 00:04:14;;;;;;;3.73;3.03;;;4.70;99.90;;;;;;5100215;28;20227;-64
2022/04/04 00:06:40;;;;;;;4.20;2.93;;;4.70;99.90;;;;;;5098446;28;20169;-64
2022/04/04 00:09:05;;;;;;;5.27;2.90;;;4.70;99.90;;;;;;5099071;28;20501;-64
2022/04/04 00:11:31;;;;;;;3.20;2.67;;;4.70;99.90;;;;;;5099963;28;20190;-67
2022/04/04 00:13:57;;;;;;;3.37;2.37;;;4.70;99.90;;;;;;5099580;28;20158;-66
2022/04/04 00:16:22;;;;;;;2.47;2.00;;;4.70;99.90;;;;;;5098105;28;20204;-65
2022/04/04 00:18:49;;;;;;;3.00;2.70;;;4.60;99.90;;;;;;5098523;28;20618;-64
2022/04/04 00:21:15;;;;;;;4.00;2.50;;;4.60;99.90;;;;;;5097563;28;20172;-65
2022/04/04 00:23:41;;;;;;;3.70;2.60;;;4.60;99.90;;;;;;5098154;28;20168;-66
2022/04/04 00:26:07;;;;;;;2.43;2.20;;;4.60;99.90;;;;;;5097489;28;20168;-67
2022/04/04 00:28:32;;;;;;;5.13;2.33;;;4.70;99.90;;;;;;5093581;28;20169;-64
2022/04/04 00:30:58;;;;;;;3.13;2.83;;;4.60;99.90;;;;;;5093439;28;20183;-64
2022/04/04 00:33:24;;;;;;;2.53;2.30;;;4.70;99.90;;;;;;5093995;28;20247;-65
2022/04/04 00:35:49;;;;;;;5.77;2.60;;;4.60;99.90;;;;;;5093627;28;20167;-65
2022/04/04 00:38:16;;;;;;;2.90;2.57;;;4.50;99.90;;;;;;5093046;28;20172;-64
2022/04/04 00:40:43;;;;;;;2.20;2.00;;;4.60;99.90;;;;;;5093015;28;20495;-66
2022/04/04 00:43:09;;;;;;;2.87;2.40;;;4.60;99.90;;;;;;5093393;28;20155;-66
2022/04/04 00:45:34;;;;;;;4.07;2.90;;;4.60;99.90;;;;;;5075516;28;20486;-66
2022/04/04 00:48:00;;;;;;;5.10;3.00;;;4.50;99.90;;;;;;5093413;28;20176;-65
2022/04/04 00:50:26;;;;;;;4.43;2.80;;;4.50;99.90;;;;;;5092671;28;20172;-65
2022/04/04 00:52:51;;;;;;;4.23;2.50;;;4.40;99.90;;;;;;5109125;28;20497;-64
2022/04/04 00:55:17;;;;;;;3.23;2.77;;;4.50;99.90;;;;;;5093195;28;20236;-65
2022/04/04 00:57:44;;;;;;;3.10;2.53;;;4.50;99.90;;;;;;5092817;28;20198;-64
2022/04/04 01:00:11;;;;;;;3.13;2.30;;;4.50;99.90;;;;;;5095193;28;20250;-65
2022/04/04 01:02:38;;;;;;;2.83;2.33;;;4.50;99.90;;;;;;5094785;28;20225;-65
2022/04/04 01:05:05;;;;;;;3.53;2.50;;;4.50;99.90;;;;;;5094666;28;20159;-64
2022/04/04 01:07:31;;;;;;;4.77;2.80;;;4.40;99.90;;;;;;5095866;28;20577;-65
2022/04/04 01:09:57;;;;;;;2.97;2.67;;;4.50;99.90;;;;;;5094929;28;20243;-65
2022/04/04 01:12:22;;;;;;;3.70;2.83;;;4.50;99.90;;;;;;5092608;28;20256;-65
2022/04/04 01:14:48;;;;;;;4.10;2.50;;;4.50;99.90;;;;;;5093113;28;20171;-65
2022/04/04 01:17:21;;;;;;;3.80;2.87;;;4.60;99.90;;;;;;5092727;28;20211;-66
2022/04/04 01:19:47;;;;;;;3.77;2.70;;;4.40;99.90;;;;;;5092469;28;20171;-65
2022/04/04 01:22:14;;;;;;;7.33;3.40;;;4.40;99.90;;;;;;5092518;28;20170;-65
2022/04/04 01:24:40;;;;;;;2.87;2.60;;;4.30;99.90;;;;;;5092495;28;20157;-65
2022/04/04 01:27:08;;;;;;;5.73;2.80;;;4.40;99.90;;;;;;5092669;28;20172;-63
2022/04/04 01:29:34;;;;;;;4.37;2.53;;;4.40;99.90;;;;;;5092948;28;20168;-65
2022/04/04 01:32:00;;;;;;;3.37;2.90;;;4.30;99.90;;;;;;5092677;28;20604;-65
2022/04/04 01:34:26;;;;;;;3.23;2.90;;;4.20;99.90;;;;;;5077757;28;20171;-64
2022/04/04 01:36:52;;;;;;;4.00;2.60;;;4.20;99.90;;;;;;5096877;28;20216;-66
2022/04/04 01:39:18;;;;;;;4.73;3.27;;;4.10;99.90;;;;;;5096625;28;20170;-64
2022/04/04 01:41:44;;;;;;;4.33;2.80;;;4.20;99.90;;;;;;5097466;28;20167;-65
2022/04/04 01:44:10;;;;;;;5.73;3.17;;;4.10;99.90;;;;;;5096746;28;20205;-65
2022/04/04 01:46:36;;;;;;;5.23;2.87;;;4.10;99.90;;;;;;5096443;28;20167;-65
2022/04/04 01:49:05;;;;;;;3.00;2.60;;;4.10;99.90;;;;;;5078114;28;20176;-65
2022/04/04 01:51:32;;;;;;;3.57;2.77;;;4.10;99.90;;;;;;5096331;28;20173;-64
2022/04/04 01:53:58;;;;;;;5.70;3.10;;;4.10;99.90;;;;;;5078269;28;20502;-65
2022/04/04 01:56:24;;;;;;;4.17;2.90;;;4.10;99.90;;;;;;5096772;28;20224;-65
2022/04/04 01:58:50;;;;;;;3.77;3.00;;;4.00;99.90;;;;;;5096240;28;20163;-64
2022/04/04 02:01:20;;;;;;;3.43;2.93;;;4.00;99.90;;;;;;5096106;28;20163;-64
2022/04/04 02:03:48;;;;;;;3.30;2.73;;;4.00;99.90;;;;;;5096209;28;20174;-64
2022/04/04 02:06:14;;;;;;;3.10;2.70;;;4.00;99.90;;;;;;5096179;28;20182;-65
2022/04/04 02:08:44;;;;;;;3.30;2.73;;;3.90;99.90;;;;;;5096734;28;20163;-65
2022/04/04 02:11:10;;;;;;;3.43;2.80;;;3.90;99.90;;;;;;5095926;28;20206;-65
2022/04/04 02:13:36;;;;;;;4.47;2.70;;;3.90;99.90;;;;;;5096695;28;20161;-67
2022/04/04 02:16:02;;;;;;;2.80;2.50;;;4.00;99.90;;;;;;5096573;28;20247;-65
2022/04/04 02:18:29;;;;;;;3.77;2.87;;;4.00;99.90;;;;;;5096046;28;20263;-66
2022/04/04 02:20:55;;;;;;;3.83;3.30;;;4.00;99.90;;;;;;5077848;28;20240;-65
2022/04/04 02:23:21;;;;;;;4.57;3.10;;;3.90;99.90;;;;;;5096272;28;20164;-65
2022/04/04 02:25:48;;;;;;;4.27;3.20;;;3.80;99.90;;;;;;5096038;28;20170;-65
2022/04/04 02:28:14;;;;;;;3.40;2.90;;;3.80;99.90;;;;;;5096020;28;20159;-65
2022/04/04 02:30:40;;;;;;;3.73;2.67;;;4.00;99.90;;;;;;5095291;28;20250;-65
2022/04/04 02:33:06;;;;;;;4.30;2.60;;;3.80;99.90;;;;;;5095259;28;20462;-66
2022/04/04 02:35:32;;;;;;;3.93;2.97;;;3.80;99.90;;;;;;5077800;28;20186;-66
2022/04/04 02:37:58;;;;;;;4.10;3.10;;;3.80;99.90;;;;;;5077010;28;20238;-65
2022/04/04 02:40:24;;;;;;;6.23;2.80;;;3.80;99.90;;;;;;5095445;28;20259;-64
2022/04/04 02:42:50;;;;;;;4.43;3.33;;;3.80;99.90;;;;;;5095388;28;20619;-65
2022/04/04 02:45:16;;;;;;;5.00;3.20;;;4.10;99.90;;;;;;5094619;28;20210;-66
2022/04/04 02:47:42;;;;;;;5.27;3.43;;;4.00;99.90;;;;;;5095351;28;20170;-64
2022/04/04 02:50:09;;;;;;;6.13;3.17;;;3.90;99.90;;;;;;5095769;28;20214;-64
2022/04/04 02:52:34;;;;;;;3.50;2.67;;;4.00;99.90;;;;;;5094836;28;20622;-65
2022/04/04 02:56:28;;;;;;;3.70;2.87;;;4.00;99.90;;;;;;5095232;28;20221;-64
2022/04/04 02:57:49;;;;;;;5.33;3.10;;;4.00;99.90;;;;;;5094874;28;20198;-65
2022/04/04 03:00:17;;;;;;;3.67;3.20;;;4.10;99.90;;;;;;5095338;28;20467;-64
2022/04/04 03:02:43;;;;;;;4.20;3.07;;;4.00;99.90;;;;;;5077656;28;20537;-65
2022/04/04 03:05:09;;;;;;;3.33;2.90;;;4.10;99.90;;;;;;5096792;28;20254;-65
2022/04/04 03:07:35;;;;;;;3.80;3.00;;;4.00;99.90;;;;;;5096986;28;20198;-66
2022/04/04 03:10:01;;;;;;;3.60;2.60;;;4.00;99.90;;;;;;5094992;28;20548;-65
2022/04/04 03:12:27;;;;;;;3.07;2.77;;;4.20;99.90;;;;;;5094533;28;20155;-65
2022/04/04 03:14:53;;;;;;;3.23;2.73;;;4.00;99.90;;;;;;5094500;28;20156;-65
2022/04/04 03:17:18;;;;;;;3.23;2.53;;;4.00;99.90;;;;;;5098187;28;20248;-63
2022/04/04 03:19:44;;;;;;;4.77;2.77;;;4.00;99.90;;;;;;5096541;28;20163;-65
2022/04/04 03:22:10;;;;;;;3.23;2.93;;;4.00;99.90;;;;;;5095102;28;20174;-65
2022/04/04 03:24:35;;;;;;;3.10;2.77;;;4.00;99.90;;;;;;5095362;28;20205;-65
2022/04/04 03:27:01;;;;;;;3.40;3.00;;;3.90;99.90;;;;;;5094503;28;20663;-64
2022/04/04 03:29:27;;;;;;;3.27;2.70;;;3.80;99.90;;;;;;5095008;28;20270;-65
2022/04/04 03:31:53;;;;;;;3.03;2.60;;;3.80;99.90;;;;;;5094432;28;20670;-65
2022/04/04 03:34:19;;;;;;;3.00;2.57;;;3.70;99.90;;;;;;5094980;28;20175;-64
2022/04/04 03:36:44;;;;;;;3.60;2.90;;;3.70;99.90;;;;;;5094667;28;20219;-65
2022/04/04 03:39:13;;;;;;;4.33;2.73;;;3.70;99.90;;;;;;5094821;28;20178;-65
2022/04/04 03:41:39;;;;;;;3.70;2.83;;;3.60;99.90;;;;;;5094111;28;20182;-65
2022/04/04 03:44:06;;;;;;;4.97;2.77;;;3.70;99.90;;;;;;5094491;28;20172;-65
2022/04/04 03:46:32;;;;;;;4.90;3.00;;;3.70;99.90;;;;;;5095138;28;20172;-65
2022/04/04 03:48:58;;;;;;;5.20;2.77;;;3.70;99.90;;;;;;5093772;28;20533;-66
2022/04/04 03:51:23;;;;;;;4.57;2.93;;;3.70;99.90;;;;;;5094232;28;20163;-66
2022/04/04 03:53:49;;;;;;;3.70;2.50;;;3.50;99.90;;;;;;5094778;28;20155;-65
2022/04/04 03:56:15;;;;;;;3.17;2.80;;;3.50;99.90;;;;;;5097769;28;20230;-65
2022/04/04 03:58:40;;;;;;;5.00;2.60;;;3.50;99.90;;;;;;5100344;28;20594;-65
2022/04/04 04:01:06;;;;;;;4.30;2.97;;;3.50;99.90;;;;;;5099156;28;20167;-66
2022/04/04 04:03:34;;;;;;;3.63;2.70;;;3.50;99.90;;;;;;5094408;28;20156;-64
2022/04/04 04:06:11;;;;;;;3.53;2.87;;;3.50;99.90;;;;;;5094349;28;20308;-66
2022/04/04 04:08:39;;;;;;;3.40;3.10;;;3.50;99.90;;;;;;5093836;28;20151;-64
2022/04/04 04:11:05;;;;;;;4.03;3.10;;;3.40;99.90;;;;;;5093760;28;20509;-64
2022/04/04 04:13:31;;;;;;;3.50;2.73;;;3.40;99.90;;;;;;5093413;28;20174;-66
2022/04/04 04:15:58;;;;;;;4.47;3.00;;;3.40;99.90;;;;;;5093755;28;20190;-65
2022/04/04 04:18:23;;;;;;;3.57;2.90;;;3.40;99.90;;;;;;5075776;28;20514;-64
2022/04/04 04:20:50;;;;;;;5.87;3.77;;;3.40;99.90;;;;;;5093991;28;20233;-65
2022/04/04 04:23:16;;;;;;;8.27;3.63;;;3.40;99.90;;;;;;5093207;28;20632;-64
2022/04/04 04:25:42;;;;;;;6.53;3.40;;;3.30;99.90;;;;;;5093752;28;20190;-65
2022/04/04 04:28:09;;;;;;;3.63;3.00;;;3.30;99.90;;;;;;5094139;28;20605;-65
2022/04/04 04:30:35;;;;;;;4.30;3.23;;;3.30;99.90;;;;;;5094080;28;20160;-66
2022/04/04 04:33:01;;;;;;;6.27;3.90;;;3.40;99.90;;;;;;5076243;28;20555;-64
2022/04/04 04:35:27;;;;;;;6.43;3.37;;;3.40;99.90;;;;;;5093644;28;20173;-65
2022/04/04 04:37:53;;;;;;;3.90;3.30;;;3.30;99.90;;;;;;5093634;28;20608;-66
2022/04/04 04:40:19;;;;;;;4.07;3.30;;;3.40;99.90;;;;;;5093481;28;20629;-64
2022/04/04 04:42:47;;;;;;;3.97;3.50;;;3.30;99.90;;;;;;5093747;28;20610;-65
2022/04/04 04:45:13;;;;;;;5.60;3.63;;;3.30;99.90;;;;;;5093416;28;20156;-64
2022/04/04 04:47:39;;;;;;;4.37;3.30;;;3.30;99.90;;;;;;5093722;28;20224;-64
2022/04/04 04:50:06;;;;;;;5.27;3.60;;;3.40;99.90;;;;;;5093039;28;20159;-64
2022/04/04 04:52:33;;;;;;;7.33;4.20;;;3.40;99.90;;;;;;5093392;28;20161;-66
2022/04/04 04:55:00;;;;;;;4.70;3.60;;;3.40;99.90;;;;;;5093237;28;20222;-65
2022/04/04 04:57:26;;;;;;;7.77;5.27;;;3.30;99.90;;;;;;5093249;28;20217;-64
2022/04/04 04:59:51;;;;;;;6.10;4.07;;;3.30;99.90;;;;;;5075151;28;20504;-64
2022/04/04 05:02:17;;;;;;;5.53;4.10;;;3.40;99.90;;;;;;5093281;28;20178;-66
2022/04/04 05:04:43;;;;;;;5.97;3.60;;;3.50;99.90;;;;;;5093244;28;20551;-65
2022/04/04 05:07:08;;;;;;;4.93;3.67;;;3.50;99.90;;;;;;5075140;28;20187;-65
2022/04/04 05:09:35;;;;;;;3.30;2.77;;;3.60;99.90;;;;;;5096011;28;20175;-65
2022/04/04 05:12:01;;;;;;;5.83;3.90;;;3.60;99.90;;;;;;5097182;28;20189;-65
2022/04/04 05:14:26;;;;;;;4.23;3.30;;;3.60;99.90;;;;;;5097149;28;20638;-67
2022/04/04 05:16:53;;;;;;;4.47;3.43;;;3.50;99.90;;;;;;5096722;28;20234;-64
2022/04/04 05:19:22;;;;;;;3.90;3.40;;;3.60;99.90;;;;;;5078867;28;20183;-64
2022/04/04 05:21:49;;;;;;;6.33;3.93;;;3.70;99.90;;;;;;5097188;28;20201;-65
2022/04/04 05:24:15;;;;;;;5.63;4.10;;;3.70;99.90;;;;;;5096721;28;20167;-65
2022/04/04 05:26:41;;;;;;;5.67;4.70;;;3.80;99.90;;;;;;5099204;28;20205;-65
2022/04/04 05:29:08;;;;;;;5.93;4.60;;;3.80;99.90;;;;;;5098887;28;20163;-67
2022/04/04 05:31:34;;;;;;;6.93;4.00;;;3.80;99.90;;;;;;5097086;28;20667;-65
2022/04/04 05:34:01;;;;;;;3.83;3.20;;;3.90;99.90;;;;;;5096839;28;20502;-65
2022/04/04 05:36:28;;;;;;;6.32;4.55;;;4.00;99.90;;;;;;5095387;28;20534;-64
2022/04/04 05:38:57;;;;;;;5.27;3.50;;;4.00;99.90;;;;;;5096629;28;20191;-65
2022/04/04 05:41:23;;;;;;;7.30;3.90;;;4.00;99.90;;;;;;5096298;28;20247;-64
2022/04/04 05:43:48;;;;;;;5.77;3.87;;;4.10;99.90;;;;;;5096446;28;20261;-66
2022/04/04 05:46:15;;;;;;;9.43;3.20;;;4.10;99.90;;;;;;5096281;28;20514;-64
2022/04/04 05:48:41;;;;;;;6.50;4.50;;;4.10;99.90;;;;;;5096140;28;20163;-64
2022/04/04 05:51:06;;;;;;;5.60;4.80;;;4.10;99.90;;;;;;5096466;28;20552;-65
2022/04/04 05:53:32;;;;;;;8.67;4.70;;;4.10;99.90;;;;;;5096774;28;20206;-64
2022/04/04 05:55:57;;;;;;;6.23;4.83;;;4.20;99.90;;;;;;5086113;28;20234;-66
2022/04/04 05:58:23;;;;;;;6.17;4.67;;;4.20;99.90;;;;;;5057866;28;20609;-64
2022/04/04 06:00:49;;;;;;;4.10;3.20;;;4.30;99.90;;;;;;5040977;28;20172;-65
2022/04/04 06:03:15;;;;;;;8.07;4.60;;;4.20;99.90;;;;;;5057716;28;20186;-65
2022/04/04 06:05:41;;;;;;;6.73;4.73;;;4.20;99.90;;;;;;5056342;28;20174;-65
2022/04/04 06:08:07;;;;;;;5.57;4.30;;;4.20;99.90;;;;;;5056383;28;20513;-66
2022/04/04 06:10:33;;;;;;;4.80;4.30;;;4.30;99.90;;;;;;5055723;28;20173;-65
2022/04/04 06:12:59;;;;;;;5.57;4.53;;;4.30;99.90;;;;;;5056067;28;20176;-64
2022/04/04 06:15:24;;;;;;;6.97;4.80;;;4.30;99.90;;;;;;5056030;28;20651;-65
2022/04/04 06:17:50;;;;;;;5.87;4.50;;;4.50;99.90;;;;;;5055574;28;20281;-65
2022/04/04 06:20:16;;;;;;;8.20;4.00;;;4.70;99.90;;;;;;5055313;28;20216;-65
2022/04/04 06:22:43;;;;;;;4.40;3.40;;;4.80;99.90;;;;;;5055197;28;20219;-65
2022/04/04 06:25:14;;;;;;;5.40;4.00;;;5.00;99.90;;;;;;5055336;28;20686;-66
2022/04/04 06:27:40;;;;;;;5.33;4.17;;;5.10;99.90;;;;;;5055685;28;20243;-64
2022/04/04 06:30:07;;;;;;;6.77;4.00;;;5.10;99.90;;;;;;5055560;28;20519;-65
2022/04/04 06:32:33;;;;;;;5.70;4.63;;;5.20;99.90;;;;;;5037720;28;20189;-64
2022/04/04 06:34:59;;;;;;;5.43;4.00;;;5.40;99.90;;;;;;5055839;28;20247;-65
2022/04/04 06:37:25;;;;;;;6.37;4.07;;;5.30;99.90;;;;;;5056072;28;20209;-65
2022/04/04 06:39:51;;;;;;;7.63;5.37;;;5.20;99.90;;;;;;5055545;28;20176;-65
2022/04/04 06:42:17;;;;;;;5.67;3.80;;;5.10;99.90;;;;;;5058006;28;20223;-65
2022/04/04 06:44:42;;;;;;;7.97;4.90;;;5.20;99.90;;;;;;5057903;28;20203;-65
2022/04/04 06:47:09;;;;;;;6.63;3.70;;;5.20;99.90;;;;;;5058201;28;20194;-67
2022/04/04 06:49:34;;;;;;;4.73;3.73;;;5.40;99.90;;;;;;5057013;28;20195;-66
2022/04/04 06:52:00;;;;;;;7.47;5.40;;;5.40;99.90;;;;;;5057206;28;20583;-65
2022/04/04 06:54:27;;;;;;;8.20;5.17;;;5.40;99.90;;;;;;5057716;28;20171;-66
2022/04/04 06:56:53;;;;;;;6.37;4.40;;;5.40;99.90;;;;;;5091060;28;20290;-65
2022/04/04 06:59:19;;;;;;;5.07;3.90;;;5.50;99.90;;;;;;5075791;28;20156;-65
2022/04/04 07:01:46;;;;;;;5.40;3.33;;;5.60;99.90;;;;;;5074899;28;20174;-65
2022/04/04 07:04:12;;;;;;;8.17;4.60;;;5.70;99.90;;;;;;5075615;28;20207;-64
2022/04/04 07:06:38;;;;;;;7.63;5.00;;;5.90;99.90;;;;;;5074893;28;20651;-65
2022/04/04 07:09:03;;;;;;;5.33;3.93;;;6.00;99.90;;;;;;5071180;28;20197;-66
2022/04/04 07:11:30;;;;;;;6.97;3.80;;;6.00;99.90;;;;;;5075749;28;20203;-65
2022/04/04 07:13:56;;;;;;;6.73;4.53;;;5.90;99.90;;;;;;5078495;28;20163;-64
2022/04/04 07:16:22;;;;;;;6.93;4.30;;;6.00;99.70;;;;;;5078115;28;20245;-67
2022/04/04 07:18:48;;;;;;;5.90;3.83;;;6.20;99.50;;;;;;5078395;28;20166;-67
2022/04/04 07:21:15;;;;;;;5.40;3.97;;;6.20;99.30;;;;;;5059061;28;20619;-65
2022/04/04 07:23:41;;;;;;;5.13;3.33;;;6.40;99.00;;;;;;5078469;28;20164;-64
2022/04/04 07:26:07;;;;;;;3.53;3.10;;;6.50;98.30;;;;;;5080852;28;20258;-66
2022/04/04 07:28:33;;;;;;;7.20;3.37;;;6.40;97.90;;;;;;5079368;28;20188;-65
2022/04/04 07:31:01;;;;;;;4.93;3.30;;;6.50;97.90;;;;;;5078079;28;20611;-65
2022/04/04 07:33:27;;;;;;;4.73;3.43;;;6.50;97.30;;;;;;5075016;28;20262;-64
2022/04/04 07:35:52;;;;;;;4.50;3.33;;;6.50;97.00;;;;;;5074864;28;20171;-65
2022/04/04 07:38:18;;;;;;;5.83;3.90;;;6.70;96.70;;;;;;5074385;28;20208;-65
2022/04/04 07:40:43;;;;;;;3.57;2.80;;;6.80;96.10;;;;;;5074156;28;20509;-64
2022/04/04 07:43:09;;;;;;;4.50;3.20;;;6.80;95.30;;;;;;5056863;28;20178;-64
2022/04/04 07:45:35;;;;;;;5.33;3.70;;;7.10;94.90;;;;;;5074305;28;20507;-65
2022/04/04 07:48:01;;;;;;;6.03;3.17;;;7.10;93.90;;;;;;5074408;28;20212;-64
2022/04/04 07:50:27;;;;;;;6.90;3.50;;;7.20;93.50;;;;;;5074052;28;20177;-65
2022/04/04 07:52:53;;;;;;;8.27;4.17;;;7.40;92.60;;;;;;5074580;28;20611;-64
2022/04/04 07:55:19;;;;;;;6.23;4.00;;;7.30;92.20;;;;;;5074022;28;20297;-64
2022/04/04 07:57:45;;;;;;;5.03;3.73;;;7.40;91.30;;;;;;5074202;28;20658;-63
2022/04/04 08:00:14;;;;;;;7.40;5.00;;;7.50;90.40;;;;;;5074249;28;20160;-65
2022/04/04 08:02:41;;;;;;;5.00;3.97;;;7.50;89.10;;;;;;5074159;28;20170;-65
2022/04/04 08:05:08;;;;;;;4.10;3.17;;;7.50;86.20;;;;;;5074547;28;20167;-63
2022/04/04 08:07:34;;;;;;;5.40;3.40;;;7.40;86.30;;;;;;5074088;28;20251;-65
2022/04/04 08:10:00;;;;;;;5.40;3.60;;;7.60;85.30;;;;;;5074340;28;20182;-64
2022/04/04 08:12:26;;;;;;;4.20;3.57;;;7.60;83.70;;;;;;5073889;28;20181;-65
2022/04/04 08:14:52;;;;;;;5.13;3.70;;;7.60;83.10;;;;;;5056524;28;20507;-66
2022/04/04 08:17:18;;;;;;;4.43;3.33;;;7.50;82.10;;;;;;5075420;28;20281;-65
2022/04/04 08:19:44;;;;;;;3.33;3.03;;;7.30;81.90;;;;;;5077137;28;20600;-63
2022/04/04 08:22:09;;;;;;;4.57;3.10;;;7.70;82.00;;;;;;5076901;28;20162;-64
2022/04/04 08:24:35;;;;;;;6.30;3.03;;;7.50;81.00;;;;;;5077617;28;20276;-64
2022/04/04 08:27:01;;;;;;;4.13;3.60;;;7.70;79.70;;;;;;5077029;28;20261;-64
2022/04/04 08:29:26;;;;;;;5.00;3.53;;;7.90;79.30;;;;;;5071669;28;20187;-64
2022/04/04 08:31:52;;;;;;;5.00;3.40;;;7.80;78.50;;;;;;5074092;28;20495;-65
2022/04/04 08:34:18;;;;;;;7.03;3.97;;;8.00;78.30;;;;;;5073682;28;20560;-64
2022/04/04 08:36:43;;;;;;;3.73;3.10;;;8.10;76.90;;;;;;5073932;28;20627;-64
2022/04/04 08:39:09;;;;;;;7.17;3.53;;;8.10;76.10;;;;;;5072957;28;20611;-65
2022/04/04 08:41:36;;;;;;;8.37;4.03;;;8.30;76.40;;;;;;5073506;28;20164;-65
2022/04/04 08:44:03;;;;;;;4.80;3.70;;;8.40;74.80;;;;;;5078210;28;20161;-65
2022/04/04 08:46:29;;;;;;;4.50;3.90;;;8.40;73.40;;;;;;5078720;28;20282;-65
2022/04/04 08:48:57;;;;;;;4.13;3.43;;;8.20;72.80;;;;;;5079608;28;20170;-64
2022/04/04 08:51:25;;;;;;;6.70;3.90;;;8.50;71.80;;;;;;5060232;28;20198;-64
2022/04/04 08:53:50;;;;;;;3.73;3.43;;;8.80;70.50;;;;;;5078571;28;20162;-64
2022/04/04 08:56:17;;;;;;;4.47;3.73;;;8.70;68.60;;;;;;5078903;28;20302;-65
2022/04/04 08:58:43;;;;;;;6.40;3.70;;;8.60;67.50;;;;;;5078853;28;20604;-65
2022/04/04 09:01:09;;;;;;;7.70;3.47;;;8.60;67.40;;;;;;5077414;28;20171;-65
2022/04/04 09:03:34;;;;;;;4.53;3.60;;;8.60;67.40;;;;;;5077566;28;20496;-65
2022/04/04 09:06:05;;;;;;;3.70;2.83;;;8.70;66.80;;;;;;5078832;28;20174;-64
2022/04/04 09:08:44;;;;;;;4.13;3.23;;;8.90;66.20;;;;;;5103242;28;20160;-67
2022/04/04 09:11:11;;;;;;;3.87;3.47;;;8.80;64.90;;;;;;5088303;28;20166;-66
2022/04/04 09:13:37;;;;;;;6.73;3.20;;;8.80;65.60;;;;;;5085470;28;20559;-66
2022/04/04 09:16:04;;;;;;;4.47;3.17;;;8.80;64.00;;;;;;5070023;28;20182;-65
2022/04/04 09:18:42;;;;;;;5.20;3.90;;;8.80;63.60;;;;;;5087474;28;20623;-66
2022/04/04 09:21:07;;;;;;;5.30;3.77;;;9.10;63.00;;;;;;5085300;28;20159;-69
2022/04/04 09:23:35;;;;;;;4.30;3.33;;;9.50;61.90;;;;;;5086240;28;20164;-66
2022/04/04 09:26:01;;;;;;;5.33;3.80;;;9.20;61.50;;;;;;5085426;28;20167;-65
2022/04/04 09:28:27;;;;;;;4.40;3.70;;;9.30;61.30;;;;;;5085699;28;20163;-65
2022/04/04 09:31:07;;;;;;;4.53;3.30;;;9.40;60.40;;;;;;5081522;28;20163;-65
2022/04/04 09:33:40;;;;;;;3.97;3.47;;;9.50;60.40;;;;;;5076746;28;20251;-64
2022/04/04 09:36:07;;;;;;;5.20;4.27;;;9.60;59.90;;;;;;5076469;28;20637;-65
2022/04/04 09:38:34;;;;;;;4.90;3.63;;;9.40;59.10;;;;;;5076866;28;20254;-65
2022/04/04 09:41:18;;;;;;;3.93;3.53;;;9.20;60.00;;;;;;5076596;28;20606;-64
2022/04/04 09:43:54;;;;;;;4.93;4.37;;;9.30;60.90;;;;;;5077095;28;20162;-64
2022/04/04 09:46:21;;;;;;;4.17;3.70;;;8.90;58.70;;;;;;5075723;28;20168;-63
2022/04/04 09:49:03;;;;;;;4.37;3.60;;;9.10;58.50;;;;;;5076089;28;20164;-64
2022/04/04 09:51:38;;;;;;;5.40;3.90;;;9.20;58.50;;;;;;5076286;28;20180;-64
2022/04/04 09:54:06;;;;;;;5.53;3.73;;;9.40;57.80;;;;;;5075392;28;20208;-63
2022/04/04 09:56:32;;;;;;;5.47;3.60;;;9.30;57.40;;;;;;5075722;28;20314;-65
2022/04/04 09:59:02;;;;;;;4.00;3.20;;;9.40;57.70;;;;;;5054115;28;20280;-64
2022/04/04 10:01:30;;;;;;;5.03;3.40;;;9.20;56.20;;;;;;5076200;28;20168;-65
2022/04/04 10:03:56;;;;;;;3.93;3.40;;;9.40;55.60;;;;;;5076171;28;20186;-64
2022/04/04 10:06:27;;;;;;;4.40;3.30;;;9.50;55.30;;;;;;5075852;28;20195;-65
2022/04/04 10:08:56;;;;;;;6.73;3.93;;;9.50;55.50;;;;;;5075867;28;20249;-65
2022/04/04 10:11:23;;;;;;;6.13;3.23;;;9.50;55.90;;;;;;5075789;28;20164;-65
2022/04/04 10:13:49;;;;;;;4.23;3.20;;;9.50;55.50;;;;;;5075746;28;20652;-65
2022/04/04 10:16:16;;;;;;;4.00;3.60;;;9.40;55.90;;;;;;5076362;28;20163;-65
2022/04/04 10:18:43;;;;;;;4.63;3.93;;;9.40;56.40;;;;;;5075862;28;20160;-66
2022/04/04 10:21:11;;;;;;;5.80;3.90;;;9.50;56.30;;;;;;5075752;28;20171;-64
2022/04/04 10:23:38;;;;;;;4.73;3.93;;;9.50;56.10;;;;;;5075363;28;20168;-66
2022/04/04 10:26:06;;;;;;;3.77;3.30;;;9.30;56.60;;;;;;5075321;28;20156;-66
2022/04/04 10:28:37;;;;;;;4.07;3.47;;;9.50;56.00;;;;;;5075571;28;20361;-65
2022/04/04 10:31:21;;;;;;;3.97;3.47;;;9.50;56.00;;;;;;5075866;28;20198;-64
2022/04/04 10:33:48;;;;;;;6.63;3.70;;;9.40;56.30;;;;;;5075868;28;20203;-65
2022/04/04 10:36:20;;;;;;;5.23;4.00;;;9.20;56.70;;;;;;5075189;28;20670;-65
2022/04/04 10:38:49;;;;;;;4.73;3.60;;;9.40;57.20;;;;;;5075793;28;20160;-65
2022/04/04 10:41:18;;;;;;;9.97;3.53;;;9.50;56.50;;;;;;5075484;28;20160;-64
2022/04/04 10:43:46;;;;;;;4.37;3.30;;;9.60;56.10;;;;;;5077091;28;20155;-65
2022/04/04 10:46:14;;;;;;;5.70;3.43;;;9.60;55.70;;;;;;5076008;28;20156;-68
2022/04/04 10:48:46;;;;;;;4.73;3.30;;;9.40;54.80;;;;;;5075244;28;20302;-67
2022/04/04 10:51:31;;;;;;;3.87;3.23;;;9.70;55.20;;;;;;5074889;28;20258;-66
2022/04/04 10:54:10;;;;;;;4.37;3.23;;;9.80;54.70;;;;;;5075047;28;20152;-67
2022/04/04 10:56:45;;;;;;;3.57;3.17;;;9.90;53.60;;;;;;5075436;28;20223;-65
2022/04/04 10:59:16;;;;;;;3.97;3.00;;;10.20;51.90;;;;;;5074585;28;20159;-65
2022/04/04 11:01:47;;;;;;;3.47;3.00;;;10.00;51.80;;;;;;5074910;28;20163;-67
2022/04/04 11:04:30;;;;;;;3.70;2.97;;;10.00;52.40;;;;;;5074777;28;20618;-65
2022/04/04 11:10:07;;;;;;;4.83;2.90;;;9.90;54.00;;;;;;5074275;28;20159;-66
2022/04/04 11:13:07;;;;;;;6.87;3.33;;;9.50;52.90;;;;;;5074806;28;20170;-65
2022/04/04 11:16:02;;;;;;;3.83;3.30;;;9.50;53.30;;;;;;5074713;28;20246;-65
2022/04/04 11:18:50;;;;;;;3.80;3.23;;;9.40;53.90;;;;;;5072940;28;20218;-65
2022/04/04 11:21:39;;;;;;;2.97;2.63;;;9.10;54.70;;;;;;5074151;28;20189;-64
2022/04/04 11:24:07;;;;;;;3.77;3.00;;;9.20;54.80;;;;;;5074490;28;20254;-64
2022/04/04 11:26:33;;;;;;;5.43;3.63;;;9.50;55.30;;;;;;5073981;28;20247;-66
2022/04/04 11:28:59;;;;;;;4.07;3.63;;;9.50;55.10;;;;;;5089646;28;20180;-66
2022/04/04 11:31:25;;;;;;;4.87;3.43;;;9.60;55.00;;;;;;5074502;28;20222;-65
2022/04/04 11:33:52;;;;;;;4.00;3.40;;;9.50;54.50;;;;;;5074155;28;20167;-64
2022/04/04 11:36:22;;;;;;;4.07;3.67;;;9.40;54.20;;;;;;5073961;28;20175;-65
2022/04/04 11:38:51;;;;;;;4.70;3.50;;;9.70;54.60;;;;;;5090278;28;20171;-65
2022/04/04 11:41:19;;;;;;;6.17;3.47;;;9.70;54.00;;;;;;5076261;28;20159;-65
2022/04/04 11:43:50;;;;;;;5.23;3.67;;;9.70;53.90;;;;;;5074396;28;20174;-65
2022/04/04 11:46:19;;;;;;;4.30;3.43;;;9.90;53.70;;;;;;5073713;28;20163;-64
2022/04/04 11:48:51;;;;;;;5.23;3.53;;;10.00;52.10;;;;;;5074225;28;20174;-65
2022/04/04 11:51:17;;;;;;;6.77;3.80;;;9.90;53.10;;;;;;5073928;28;20502;-65
2022/04/04 11:53:43;;;;;;;10.33;4.10;;;10.20;52.00;;;;;;5073961;28;20167;-65
2022/04/04 11:56:20;;;;;;;7.40;3.70;;;9.70;52.60;;;;;;5073671;28;20225;-65
2022/04/04 11:58:51;;;;;;;8.40;3.80;;;9.90;53.70;;;;;;5074339;28;20177;-65
2022/04/04 12:01:17;;;;;;;4.87;3.53;;;10.00;52.40;;;;;;5073735;28;20242;-65
2022/04/04 12:03:49;;;;;;;10.13;4.33;;;10.30;52.20;;;;;;5073469;28;20210;-65
2022/04/04 12:06:15;;;;;;;4.73;3.87;;;10.20;51.80;;;;;;5073202;28;20176;-65
2022/04/04 12:08:44;;;;;;;6.07;4.27;;;10.20;51.70;;;;;;5073715;28;20216;-64
2022/04/04 12:11:10;;;;;;;6.70;3.77;;;10.30;51.80;;;;;;5073717;28;20179;-64
2022/04/04 12:13:53;;;;;;;5.03;3.93;;;10.30;51.70;;;;;;5073663;28;20509;-65
2022/04/04 12:16:19;;;;;;;6.90;4.50;;;10.70;51.20;;;;;;5073477;28;20158;-65
2022/04/04 12:18:53;;;;;;;4.93;3.50;;;10.70;50.70;;;;;;5073401;28;20160;-65
2022/04/04 12:21:20;;;;;;;7.97;4.33;;;10.60;50.20;;;;;;5073457;28;20251;-64
2022/04/04 12:26:31;;;;;;;4.07;3.67;;;10.00;50.80;;;;;;5073800;28;20512;-65
2022/04/04 12:28:57;;;;;;;4.67;3.70;;;10.00;51.00;;;;;;5073661;28;20176;-66
2022/04/04 12:31:25;;;;;;;9.70;4.67;;;10.20;51.40;;;;;;5073507;28;20224;-65
2022/04/04 12:34:10;;;;;;;6.23;4.10;;;10.00;50.50;;;;;;5074288;28;20160;-66
2022/04/04 12:36:41;;;;;;;9.17;4.00;;;9.80;51.60;;;;;;5073234;28;20207;-65
2022/04/04 12:39:20;;;;;;;7.30;4.30;;;9.90;52.00;;;;;;5073565;28;20182;-64
2022/04/04 12:41:50;;;;;;;6.40;5.07;;;10.00;50.80;;;;;;5073801;28;20175;-64
2022/04/04 12:44:28;;;;;;;7.17;4.73;;;10.00;50.70;;;;;;5072860;28;20159;-64
2022/04/04 12:47:09;;;;;;;9.33;4.77;;;10.20;51.40;;;;;;5073153;28;20588;-66
2022/04/04 12:49:35;;;;;;;5.13;4.37;;;10.40;51.30;;;;;;5072806;28;20167;-65
2022/04/04 12:52:06;;;;;;;8.97;4.60;;;10.80;50.20;;;;;;5076964;28;20204;-65
2022/04/04 12:54:39;;;;;;;6.67;4.37;;;10.70;49.50;;;;;;5075016;28;22454;-64
2022/04/04 12:57:09;;;;;;;7.67;4.30;;;10.80;49.70;;;;;;5074447;28;20591;-67
2022/04/04 12:59:48;;;;;;;7.37;4.53;;;10.80;49.80;;;;;;5073189;28;20225;-65
2022/04/04 13:02:15;;;;;;;4.03;3.10;;;10.90;50.00;;;;;;5072783;28;20197;-65
2022/04/04 13:04:41;;;;;;;5.60;3.90;;;10.80;49.40;;;;;;5074834;28;20173;-65